Time;durP1;ratioP1;P1;durP2;ratioP2;P2;SDS_P1;SDS_P2;PMS_P1;PMS_P2;Temp;Humidity;BMP_temperature;BMP_pressure;BME280_temperature;BME280_humidity;BME280_pressure;Samples;Min_cycle;Max_cycle;Signal;HPM_P1;HPM_P2
2023/03/25 00:00:52;;;;;;;6.28;3.38;;;;;;;9.25;85.33;99771.91;4953802;28;20217;-69
2023/03/25 00:03:23;;;;;;;4.53;2.95;;;;;;;9.31;85.24;99771.84;4950686;29;20222;-69
2023/03/25 00:05:52;;;;;;;4.68;2.70;;;;;;;9.28;85.89;99776.88;4959402;29;20212;-69
2023/03/25 00:08:21;;;;;;;4.65;2.20;;;;;;;9.24;86.28;99770.28;4961175;29;20261;-68
2023/03/25 00:10:53;;;;;;;9.47;3.33;;;;;;;9.21;86.78;99776.09;4962647;28;20244;-70
2023/03/25 00:13:22;;;;;;;3.95;2.97;;;;;;;9.08;87.22;99774.34;4955762;29;20438;-70
2023/03/25 00:15:57;;;;;;;4.32;2.78;;;;;;;9.00;88.25;99763.81;4958790;28;20202;-72
2023/03/25 00:18:32;;;;;;;3.78;2.28;;;;;;;9.12;88.26;99765.56;4956198;29;20225;-70
2023/03/25 00:21:02;;;;;;;4.35;2.30;;;;;;;8.92;88.60;99762.19;4957715;28;20217;-70
2023/03/25 00:23:32;;;;;;;3.28;2.67;;;;;;;8.99;88.76;99756.75;4957266;28;20194;-69
2023/03/25 00:26:01;;;;;;;3.90;1.88;;;;;;;8.88;89.13;99750.19;4955811;28;20210;-69
2023/03/25 00:28:33;;;;;;;3.00;2.10;;;;;;;8.93;89.74;99753.06;4956063;28;20229;-69
2023/03/25 00:31:05;;;;;;;2.63;2.40;;;;;;;8.98;89.36;99747.00;4951211;29;20238;-69
2023/03/25 00:33:36;;;;;;;2.92;1.98;;;;;;;9.00;89.74;99747.63;4955667;28;20198;-69
2023/03/25 00:36:06;;;;;;;6.45;1.90;;;;;;;8.93;89.86;99747.66;4955481;29;20215;-69
2023/03/25 00:38:36;;;;;;;4.18;2.55;;;;;;;8.86;90.31;99749.56;4952408;28;20795;-68
2023/03/25 00:41:16;;;;;;;4.85;2.47;;;;;;;8.82;90.73;99759.16;4940621;29;20589;-69
2023/03/25 00:43:45;;;;;;;4.05;2.08;;;;;;;8.84;90.78;99758.94;4956512;28;20198;-69
2023/03/25 00:46:16;;;;;;;4.18;2.03;;;;;;;8.77;91.16;99764.38;4939388;29;20253;-69
2023/03/25 00:48:45;;;;;;;6.80;2.50;;;;;;;8.86;91.13;99760.38;4955034;29;20210;-70
2023/03/25 00:51:20;;;;;;;7.40;2.60;;;;;;;8.73;91.38;99773.94;4953553;29;20231;-69
2023/03/25 00:53:53;;;;;;;2.55;1.88;;;;;;;8.82;91.37;99766.41;4943304;28;20206;-68
2023/03/25 00:56:23;;;;;;;2.20;1.58;;;;;;;8.78;91.47;99771.44;4949145;28;20198;-68
2023/03/25 00:58:52;;;;;;;5.15;1.65;;;;;;;8.75;91.88;99766.47;4954560;29;20653;-70
2023/03/25 01:01:26;;;;;;;4.57;1.60;;;;;;;8.86;91.81;99768.47;4952833;29;20238;-71
2023/03/25 01:03:57;;;;;;;2.90;2.40;;;;;;;8.78;91.64;99776.81;4955631;29;20232;-69
2023/03/25 01:06:28;;;;;;;4.78;3.47;;;;;;;8.78;91.71;99776.81;4954313;29;20210;-70
2023/03/25 01:08:59;;;;;;;3.40;2.55;;;;;;;8.85;91.75;99771.41;4940132;28;20236;-70
2023/03/25 01:11:33;;;;;;;8.70;2.42;;;;;;;8.78;91.65;99766.03;4955528;29;20604;-70
2023/03/25 01:14:04;;;;;;;2.53;1.73;;;;;;;8.77;91.89;99768.94;4934768;28;20213;-70
2023/03/25 01:16:35;;;;;;;2.78;2.45;;;;;;;8.76;92.54;99768.16;4955932;29;20244;-68
2023/03/25 01:19:04;;;;;;;3.97;2.10;;;;;;;8.71;92.48;99773.38;4955917;28;20223;-69
2023/03/25 01:21:35;;;;;;;3.47;2.60;;;;;;;8.66;92.67;99759.69;4938796;29;20215;-70
2023/03/25 01:24:04;;;;;;;3.58;2.08;;;;;;;8.60;92.77;99760.56;4933923;29;20234;-68
2023/03/25 01:26:34;;;;;;;4.65;2.85;;;;;;;8.49;93.71;99750.44;4938706;29;20209;-69
2023/03/25 01:29:05;;;;;;;2.65;2.45;;;;;;;8.73;93.07;99757.78;4936745;29;20229;-69
2023/03/25 01:31:36;;;;;;;8.98;3.30;;;;;;;8.73;92.48;99757.78;4956547;28;20229;-70
2023/03/25 01:34:06;;;;;;;3.88;2.40;;;;;;;8.67;92.78;99748.66;4953286;28;20216;-69
2023/03/25 01:36:36;;;;;;;2.40;1.73;;;;;;;8.69;92.89;99745.78;4956746;29;20238;-69
2023/03/25 01:39:06;;;;;;;8.48;3.28;;;;;;;8.53;92.95;99741.72;4958865;28;20555;-69
2023/03/25 01:41:36;;;;;;;4.18;2.15;;;;;;;8.60;93.25;99741.69;4936814;29;20811;-69
2023/03/25 01:44:56;;;;;;;5.60;2.10;;;;;;;8.61;92.45;99729.88;4954482;29;20206;-69
2023/03/25 01:47:27;;;;;;;2.50;1.40;;;;;;;8.52;93.30;99728.47;4955729;29;20289;-69
2023/03/25 01:49:56;;;;;;;3.38;2.40;;;;;;;8.50;93.52;99727.84;4957124;28;20205;-69
2023/03/25 01:52:28;;;;;;;3.20;2.28;;;;;;;8.49;93.69;99734.28;4954645;28;20185;-69
2023/03/25 01:54:59;;;;;;;3.10;1.92;;;;;;;8.39;93.95;99723.13;4955409;28;20206;-70
2023/03/25 01:57:30;;;;;;;4.03;1.98;;;;;;;8.50;93.38;99717.06;4953567;28;20610;-70
2023/03/25 01:59:59;;;;;;;4.05;2.45;;;;;;;8.53;93.60;99724.72;4955589;28;20630;-68
2023/03/25 02:02:38;;;;;;;2.45;2.25;;;;;;;8.42;93.83;99722.72;4950244;28;20217;-68
2023/03/25 02:05:16;;;;;;;2.95;1.63;;;;;;;8.50;93.87;99725.16;4956590;28;20202;-68
2023/03/25 02:07:49;;;;;;;2.25;1.52;;;;;;;8.52;93.16;99715.00;4956493;28;20225;-71
2023/03/25 02:10:19;;;;;;;2.97;2.60;;;;;;;8.63;93.17;99711.56;4956729;29;20198;-68
2023/03/25 02:12:48;;;;;;;2.05;1.60;;;;;;;8.68;92.82;99711.75;4962431;28;20657;-69
2023/03/25 02:15:19;;;;;;;4.20;2.03;;;;;;;8.73;91.92;99709.22;4957008;29;20210;-69
2023/03/25 02:18:12;;;;;;;3.25;1.70;;;;;;;8.69;92.13;99702.63;4941025;29;20230;-70
2023/03/25 02:21:11;;;;;;;4.70;2.83;;;;;;;8.91;91.54;99701.19;4939315;29;20200;-68
2023/03/25 02:24:06;;;;;;;3.58;1.60;;;;;;;8.94;90.76;99695.38;4958621;28;20591;-69
2023/03/25 02:27:04;;;;;;;2.42;1.65;;;;;;;9.00;90.69;99699.88;4938933;29;20296;-69
2023/03/25 02:30:10;;;;;;;2.45;1.48;;;;;;;9.03;90.55;99698.59;4937468;29;20593;-69
2023/03/25 02:32:55;;;;;;;3.92;1.65;;;;;;;9.07;90.21;99699.81;4911665;29;20214;-69
2023/03/25 02:35:40;;;;;;;4.05;2.08;;;;;;;9.09;90.07;99686.94;4954260;28;20726;-70
2023/03/25 02:38:20;;;;;;;5.70;2.00;;;;;;;9.15;89.74;99684.16;4966951;28;20222;-70
2023/03/25 02:40:57;;;;;;;3.60;1.77;;;;;;;9.16;90.20;99685.00;4937419;29;20344;-69
2023/03/25 02:43:32;;;;;;;4.32;1.58;;;;;;;9.08;90.43;99678.00;4939903;29;20205;-69
2023/03/25 02:46:05;;;;;;;5.05;2.08;;;;;;;9.20;90.00;99682.69;4952871;28;20294;-69
2023/03/25 02:48:40;;;;;;;2.28;1.80;;;;;;;9.15;89.89;99673.34;4954101;28;20313;-70
2023/03/25 02:51:14;;;;;;;3.55;2.08;;;;;;;9.22;89.39;99667.09;4938619;29;20189;-71
2023/03/25 02:53:49;;;;;;;6.28;1.73;;;;;;;9.18;89.47;99671.28;4937167;29;20682;-68
2023/03/25 02:56:24;;;;;;;3.55;1.60;;;;;;;9.13;89.72;99667.38;4954502;29;20201;-69
2023/03/25 02:58:55;;;;;;;2.90;1.67;;;;;;;9.08;89.66;99661.81;4939409;28;20235;-69
2023/03/25 03:01:25;;;;;;;5.38;2.90;;;;;;;9.19;89.55;99662.97;4939957;29;20206;-69
2023/03/25 03:03:56;;;;;;;3.20;2.03;;;;;;;9.21;89.41;99668.13;4938002;29;20791;-70
2023/03/25 03:06:27;;;;;;;2.90;1.70;;;;;;;9.27;88.77;99654.56;4958003;28;20210;-70
2023/03/25 03:09:24;;;;;;;3.45;1.33;;;;;;;9.34;88.49;99665.31;4952733;28;20221;-68
2023/03/25 03:12:09;;;;;;;3.25;2.83;;;;;;;9.16;89.07;99655.31;4953118;28;20202;-69
2023/03/25 03:14:53;;;;;;;3.95;1.85;;;;;;;9.32;88.79;99667.41;4952658;29;20214;-70
2023/03/25 03:17:30;;;;;;;3.03;1.42;;;;;;;9.33;88.61;99660.97;4956753;28;20281;-71
2023/03/25 03:20:07;;;;;;;4.18;2.35;;;;;;;9.50;87.57;99670.09;4954531;28;20197;-70
2023/03/25 03:22:43;;;;;;;4.57;2.42;;;;;;;9.57;87.88;99668.16;4952890;28;20289;-70
2023/03/25 03:25:22;;;;;;;5.78;1.70;;;;;;;9.52;88.84;99676.13;4955524;29;20195;-69
2023/03/25 03:27:57;;;;;;;3.85;1.98;;;;;;;9.51;90.28;99688.78;4956028;28;20714;-69
2023/03/25 03:30:32;;;;;;;1.83;1.35;;;;;;;9.39;90.87;99676.25;4953672;29;20229;-69
2023/03/25 03:33:12;;;;;;;3.53;1.80;;;;;;;9.37;92.29;99678.34;4948576;28;20221;-67
2023/03/25 03:35:48;;;;;;;3.35;1.50;;;;;;;9.30;93.10;99680.28;4952456;29;20682;-69
2023/03/25 03:38:22;;;;;;;2.20;1.50;;;;;;;9.33;93.86;99672.59;4950586;29;20217;-69
2023/03/25 03:40:57;;;;;;;4.10;1.45;;;;;;;9.31;94.58;99676.53;4940854;29;20203;-68
2023/03/25 03:43:31;;;;;;;2.03;1.63;;;;;;;9.29;95.65;99681.34;4957592;28;20573;-70
2023/03/25 03:46:06;;;;;;;3.20;1.70;;;;;;;9.20;95.73;99680.00;4949835;29;20287;-69
2023/03/25 03:48:42;;;;;;;4.72;1.67;;;;;;;9.22;96.34;99681.41;4950833;29;20225;-69
2023/03/25 03:51:20;;;;;;;2.35;1.63;;;;;;;9.18;97.17;99680.22;4935351;28;20193;-70
2023/03/25 03:53:57;;;;;;;5.90;2.55;;;;;;;9.20;97.14;99688.09;4958675;28;20220;-69
2023/03/25 03:56:35;;;;;;;4.03;1.98;;;;;;;9.19;98.42;99686.44;4952143;29;20205;-69
2023/03/25 03:59:11;;;;;;;4.05;1.60;;;;;;;9.14;99.50;99673.59;4950293;29;20217;-68
2023/03/25 04:01:44;;;;;;;2.60;1.50;;;;;;;9.10;100.00;99665.09;4951416;28;20209;-70
2023/03/25 04:04:17;;;;;;;1.70;1.60;;;;;;;9.11;100.00;99663.25;4948865;29;20544;-68
2023/03/25 04:06:55;;;;;;;3.22;1.45;;;;;;;9.09;100.00;99660.78;4951475;28;20194;-68
2023/03/25 04:09:33;;;;;;;4.13;1.30;;;;;;;9.11;100.00;99663.25;4949870;28;20802;-68
2023/03/25 04:12:09;;;;;;;4.15;1.65;;;;;;;9.09;100.00;99660.78;4959120;28;20632;-68
2023/03/25 04:14:39;;;;;;;3.75;1.83;;;;;;;8.97;100.00;99667.94;4943571;29;20282;-68
2023/03/25 04:17:08;;;;;;;1.67;1.40;;;;;;;9.04;100.00;99668.72;4949938;29;20278;-69
2023/03/25 04:19:37;;;;;;;3.00;1.60;;;;;;;9.09;100.00;99662.66;4951042;29;20226;-69
2023/03/25 04:22:07;;;;;;;4.15;1.45;;;;;;;9.16;100.00;99669.63;4947173;28;20202;-70
2023/03/25 04:24:40;;;;;;;2.53;1.63;;;;;;;8.95;100.00;99672.75;4945708;29;20221;-69
2023/03/25 04:27:12;;;;;;;5.32;2.00;;;;;;;9.03;100.00;99675.16;4949595;28;20734;-69
2023/03/25 04:29:42;;;;;;;6.28;2.58;;;;;;;9.06;100.00;99669.31;4951051;28;20260;-69
2023/03/25 04:32:12;;;;;;;5.63;1.83;;;;;;;9.03;100.00;99679.72;4951069;28;20265;-70
2023/03/25 04:34:42;;;;;;;3.05;1.38;;;;;;;9.18;100.00;99673.97;4950163;29;20186;-69
2023/03/25 04:37:12;;;;;;;2.35;1.27;;;;;;;9.18;100.00;99669.41;4952481;28;20763;-70
2023/03/25 04:39:41;;;;;;;2.85;1.20;;;;;;;9.11;100.00;99669.47;4949934;29;20233;-69
2023/03/25 04:42:12;;;;;;;2.67;1.10;;;;;;;9.05;100.00;99672.25;4956575;29;20193;-69
2023/03/25 04:44:41;;;;;;;1.98;1.25;;;;;;;9.01;100.00;99666.44;4952115;28;20690;-71
2023/03/25 04:47:15;;;;;;;3.00;1.40;;;;;;;8.91;100.00;99674.22;4955076;29;20687;-69
2023/03/25 04:49:44;;;;;;;5.72;1.92;;;;;;;8.90;100.00;99677.16;4949218;28;20207;-69
2023/03/25 04:52:13;;;;;;;3.85;1.20;;;;;;;8.76;100.00;99670.22;4951508;28;20190;-70
2023/03/25 04:54:45;;;;;;;5.30;2.08;;;;;;;8.82;100.00;99669.31;4959122;28;20519;-68
2023/03/25 04:57:15;;;;;;;4.07;1.77;;;;;;;8.74;100.00;99667.72;4951288;29;20252;-69
2023/03/25 04:59:45;;;;;;;2.65;1.30;;;;;;;8.65;100.00;99671.75;4953922;29;20304;-69
2023/03/25 05:02:17;;;;;;;6.05;1.90;;;;;;;8.72;100.00;99673.34;4955996;29;20678;-69
2023/03/25 05:04:47;;;;;;;3.28;1.55;;;;;;;8.57;100.00;99667.44;4959240;28;20288;-68
2023/03/25 05:07:17;;;;;;;4.25;1.42;;;;;;;8.59;100.00;99667.22;4955578;28;20194;-69
2023/03/25 05:09:46;;;;;;;2.25;1.20;;;;;;;8.72;100.00;99669.81;4952013;29;20229;-69
2023/03/25 05:12:17;;;;;;;4.20;1.70;;;;;;;8.74;100.00;99662.34;4948816;29;20203;-68
2023/03/25 05:14:46;;;;;;;2.60;1.10;;;;;;;8.84;100.00;99673.47;4954083;28;20221;-69
2023/03/25 05:17:15;;;;;;;4.40;1.42;;;;;;;8.93;98.99;99669.44;4954938;28;20245;-67
2023/03/25 05:19:44;;;;;;;2.47;1.60;;;;;;;8.97;98.60;99662.53;4960574;28;20562;-70
2023/03/25 05:22:13;;;;;;;2.17;1.33;;;;;;;8.93;98.68;99669.44;4966949;28;20190;-69
2023/03/25 05:24:44;;;;;;;3.15;1.30;;;;;;;8.97;98.65;99662.53;4958652;28;20215;-68
2023/03/25 05:27:13;;;;;;;2.63;1.50;;;;;;;8.92;98.16;99658.84;4965715;28;20701;-69
2023/03/25 05:29:44;;;;;;;2.72;1.23;;;;;;;8.97;97.94;99665.25;4958894;28;20197;-68
2023/03/25 05:32:16;;;;;;;3.05;1.23;;;;;;;9.00;97.80;99667.50;4960854;28;20298;-69
2023/03/25 05:34:46;;;;;;;1.70;1.42;;;;;;;9.05;97.31;99656.84;4955648;28;20724;-70
2023/03/25 05:38:17;;;;;;;2.53;1.13;;;;;;;9.07;96.47;99656.63;4982441;23;20311;-83
2023/03/25 05:41:31;;;;;;;3.60;1.30;;;;;;;9.23;95.19;99655.25;5000939;28;20272;-82
2023/03/25 05:44:45;;;;;;;2.80;1.45;;;;;;;9.42;94.63;99670.41;4967274;28;20213;-83
2023/03/25 05:51:20;;;;;;;4.93;1.50;;;;;;;9.91;91.45;99672.94;4955554;28;20201;-81
2023/03/25 05:54:17;;;;;;;3.65;1.20;;;;;;;9.99;89.29;99677.19;4968356;28;20198;-82
2023/03/25 06:03:17;;;;;;;2.28;1.17;;;;;;;9.75;90.14;99686.22;4982265;28;20186;-82
2023/03/25 06:09:08;;;;;;;2.92;1.15;;;;;;;9.66;89.37;99680.31;4971831;28;20220;-82
2023/03/25 06:11:52;;;;;;;2.70;1.42;;;;;;;9.83;88.76;99692.16;4995008;28;20750;-81
2023/03/25 06:14:52;;;;;;;1.40;0.90;;;;;;;9.88;86.91;99688.75;4991901;28;20206;-81
2023/03/25 06:21:25;;;;;;;2.45;0.90;;;;;;;9.79;86.25;99703.63;4964173;28;20212;-84
2023/03/25 06:24:12;;;;;;;2.28;0.95;;;;;;;9.88;86.46;99697.69;4981801;28;20704;-83
2023/03/25 06:27:16;;;;;;;2.60;1.42;;;;;;;9.86;85.54;99712.50;4970657;28;20698;-83
2023/03/25 06:29:53;;;;;;;1.75;1.00;;;;;;;9.82;86.33;99701.34;4969755;28;20654;-80
2023/03/25 06:32:31;;;;;;;3.08;0.95;;;;;;;9.88;85.13;99708.50;4978338;28;20222;-83
2023/03/25 06:35:10;;;;;;;1.30;1.00;;;;;;;9.84;85.66;99706.47;4968581;28;20250;-83
2023/03/25 06:37:58;;;;;;;5.37;1.47;;;;;;;9.97;84.97;99717.16;4964580;28;20453;-82
2023/03/25 06:41:37;;;;;;;1.67;1.08;;;;;;;9.98;84.23;99713.38;4967483;28;20572;-83
2023/03/25 06:44:37;;;;;;;2.83;1.13;;;;;;;10.17;83.85;99706.09;4956176;28;20225;-84
2023/03/25 06:47:28;;;;;;;2.50;0.90;;;;;;;10.20;82.40;99702.97;4973694;28;20310;-82
2023/03/25 06:49:58;;;;;;;3.60;0.90;;;;;;;10.36;82.39;99699.63;4971918;28;20439;-82
2023/03/25 06:52:32;;;;;;;1.10;0.85;;;;;;;10.42;81.42;99701.38;4977014;28;20458;-82
2023/03/25 06:55:21;;;;;;;3.93;1.07;;;;;;;10.40;81.04;99700.81;4989733;28;20185;-81
2023/03/25 06:58:08;;;;;;;1.93;0.90;;;;;;;10.51;81.36;99708.13;4980418;28;20407;-82
2023/03/25 07:01:02;;;;;;;1.80;1.10;;;;;;;10.21;81.75;99718.13;4967513;29;20439;-82
2023/03/25 07:03:48;;;;;;;1.37;0.83;;;;;;;10.14;82.67;99698.44;4984760;28;20419;-83
2023/03/25 07:06:47;;;;;;;3.03;1.10;;;;;;;10.29;82.33;99710.53;4982391;28;20454;-83
2023/03/25 07:09:44;;;;;;;2.00;1.00;;;;;;;10.36;81.98;99710.44;4951289;28;20201;-83
2023/03/25 07:12:15;;;;;;;5.17;0.90;;;;;;;10.40;81.66;99712.44;4976110;28;20218;-81
2023/03/25 07:18:16;;;;;;;5.23;0.93;;;;;;;10.71;80.74;99711.34;4920907;29;20469;-82
2023/03/25 07:22:00;;;;;;;1.10;1.00;;;;;;;10.88;78.57;99708.81;4916808;29;20939;-83
2023/03/25 07:24:53;;;;;;;5.13;1.00;;;;;;;10.86;78.25;99722.56;4914960;29;20471;-83
2023/03/25 07:27:34;;;;;;;1.17;0.80;;;;;;;11.01;78.46;99719.41;4920922;29;20451;-84
2023/03/25 07:33:46;;;;;;;1.33;0.80;;;;;;;11.29;76.29;99732.28;4916915;29;20575;-83
2023/03/25 07:36:16;;;;;;;2.33;0.80;;;;;;;11.40;76.09;99717.91;4908723;29;20476;-81
2023/03/25 07:38:45;;;;;;;1.77;1.27;;;;;;;11.51;74.88;99719.81;4900737;29;20461;-82
2023/03/25 07:48:43;;;;;;;2.50;1.47;;;;;;;12.04;71.43;99730.47;4988771;28;20477;-83
2023/03/25 07:51:13;;;;;;;4.10;2.80;;;;;;;12.14;69.25;99727.16;4981350;28;20412;-83
2023/03/25 07:54:02;;;;;;;2.60;1.10;;;;;;;12.17;69.32;99734.78;4959611;28;20417;-82
2023/03/25 07:57:26;;;;;;;1.30;1.00;;;;;;;12.03;68.57;99722.56;4974621;28;20436;-83
2023/03/25 08:00:24;;;;;;;1.47;0.97;;;;;;;12.11;68.57;99724.91;4972605;28;20497;-82
2023/03/25 08:03:17;;;;;;;3.57;1.30;;;;;;;12.20;68.13;99723.44;4961610;28;20424;-82
2023/03/25 08:05:50;;;;;;;2.60;1.10;;;;;;;12.08;67.00;99725.38;4955464;28;20472;-81
2023/03/25 08:08:34;;;;;;;2.03;1.20;;;;;;;12.23;66.98;99731.13;4976348;28;20397;-83
2023/03/25 08:11:08;;;;;;;2.73;1.27;;;;;;;12.23;65.69;99728.41;4959968;28;20426;-82
2023/03/25 08:16:26;;;;;;;1.50;0.87;;;;;;;12.71;65.28;99732.56;4987657;28;20430;-83
2023/03/25 08:18:55;;;;;;;2.03;0.87;;;;;;;12.60;64.42;99724.22;4962295;28;20458;-82
2023/03/25 08:21:26;;;;;;;1.40;1.07;;;;;;;12.55;65.38;99726.84;4958917;29;20572;-81
2023/03/25 08:24:01;;;;;;;2.17;1.13;;;;;;;12.27;65.99;99724.16;4957271;28;21039;-82
2023/03/25 08:26:33;;;;;;;4.77;1.53;;;;;;;12.35;65.30;99726.47;4981634;28;20511;-84
2023/03/25 08:29:11;;;;;;;6.03;1.40;;;;;;;12.51;64.70;99727.59;4988158;28;20434;-81
2023/03/25 08:31:45;;;;;;;3.07;1.03;;;;;;;12.16;64.26;99719.56;4971860;28;20432;-83
2023/03/25 08:34:28;;;;;;;2.70;1.20;;;;;;;12.05;65.70;99728.59;4989407;28;20438;-84
2023/03/25 08:36:58;;;;;;;4.77;1.60;;;;;;;12.20;65.63;99731.59;4989013;28;20429;-83
2023/03/25 08:39:28;;;;;;;1.83;1.33;;;;;;;12.13;66.25;99728.19;4986277;28;21009;-82
2023/03/25 08:42:02;;;;;;;2.57;1.30;;;;;;;11.93;66.06;99730.50;4992833;28;20414;-81
2023/03/25 08:44:32;;;;;;;5.33;1.30;;;;;;;11.93;66.32;99730.50;4984352;28;20420;-81
2023/03/25 08:47:13;;;;;;;4.47;1.20;;;;;;;12.24;66.79;99723.81;4975271;28;20465;-80
2023/03/25 08:49:46;;;;;;;1.60;0.97;;;;;;;12.50;64.37;99723.22;4959575;29;20441;-83
2023/03/25 08:52:19;;;;;;;1.80;0.90;;;;;;;12.61;63.00;99730.50;4971657;28;20406;-84
2023/03/25 08:54:49;;;;;;;1.70;0.90;;;;;;;12.66;62.53;99724.31;4977895;28;20430;-81
2023/03/25 08:57:20;;;;;;;3.10;0.87;;;;;;;12.85;61.84;99731.19;4976495;28;20448;-80
2023/03/25 08:59:50;;;;;;;1.47;0.90;;;;;;;12.76;61.31;99710.94;4992251;28;20402;-81
2023/03/25 09:02:30;;;;;;;2.80;0.93;;;;;;;12.76;61.53;99719.09;4999282;28;20387;-81
2023/03/25 09:06:00;;;;;;;3.10;0.87;;;;;;;12.59;61.24;99727.19;4981399;28;20445;-80
2023/03/25 09:08:51;;;;;;;1.90;0.97;;;;;;;12.54;61.21;99718.94;4998694;23;20480;-75
2023/03/25 09:11:21;;;;;;;2.10;1.00;;;;;;;12.86;60.91;99721.97;4984357;28;20409;-76
2023/03/25 09:14:05;;;;;;;3.50;1.03;;;;;;;12.83;60.21;99712.41;4958543;28;20440;-76
2023/03/25 09:16:36;;;;;;;2.17;1.10;;;;;;;13.03;60.50;99718.19;4981698;28;20716;-77
2023/03/25 09:19:08;;;;;;;1.40;1.00;;;;;;;12.62;60.67;99726.72;4971260;28;20516;-76
2023/03/25 09:21:39;;;;;;;2.60;1.10;;;;;;;12.63;61.24;99722.94;4986189;28;20422;-76
2023/03/25 09:24:09;;;;;;;3.40;1.00;;;;;;;12.64;62.27;99719.97;4985999;28;20430;-78
2023/03/25 09:26:39;;;;;;;2.70;0.90;;;;;;;12.27;64.66;99729.56;4980685;28;20457;-75
2023/03/25 09:29:09;;;;;;;1.77;1.03;;;;;;;12.08;65.26;99738.94;4968561;28;20433;-77
2023/03/25 09:31:45;;;;;;;1.70;1.00;;;;;;;11.58;65.81;99746.75;4977997;28;20975;-76
2023/03/25 09:34:17;;;;;;;2.93;2.73;;;;;;;11.22;71.53;99742.41;4981736;28;20392;-76
2023/03/25 09:36:47;;;;;;;2.20;1.23;;;;;;;10.94;72.46;99737.63;4985069;28;20434;-78
2023/03/25 09:39:18;;;;;;;1.90;1.20;;;;;;;10.76;75.04;99743.97;4971531;28;20869;-75
2023/03/25 09:42:11;;;;;;;1.90;1.10;;;;;;;10.99;76.69;99736.97;4983322;28;20413;-78
2023/03/25 09:44:57;;;;;;;2.60;1.27;;;;;;;10.96;76.90;99743.66;4981560;28;20429;-75
2023/03/25 09:47:34;;;;;;;2.60;1.20;;;;;;;11.12;76.48;99736.75;4980876;28;20489;-77
2023/03/25 09:50:13;;;;;;;1.63;1.00;;;;;;;11.34;75.04;99740.50;4969985;28;20428;-76
2023/03/25 09:52:58;;;;;;;4.40;1.53;;;;;;;11.43;74.02;99732.84;4981606;28;20430;-76
2023/03/25 09:55:33;;;;;;;5.63;1.30;;;;;;;11.72;73.45;99738.19;4972003;28;20468;-78
2023/03/25 09:58:29;;;;;;;3.40;1.00;;;;;;;12.03;70.72;99738.84;4961813;28;21039;-74
2023/03/25 10:01:05;;;;;;;2.10;1.00;;;;;;;12.37;69.81;99734.38;4956998;28;20432;-77
2023/03/25 10:03:47;;;;;;;1.50;1.10;;;;;;;12.32;66.33;99736.97;4962120;28;21053;-76
2023/03/25 10:06:25;;;;;;;2.90;1.03;;;;;;;12.70;65.56;99739.06;4969802;28;20754;-76
2023/03/25 10:09:40;;;;;;;2.53;1.40;;;;;;;12.49;64.75;99733.25;4963732;28;20538;-74
2023/03/25 10:12:29;;;;;;;3.03;1.07;;;;;;;12.29;63.85;99730.16;4943193;28;20471;-73
2023/03/25 10:15:13;;;;;;;2.30;1.37;;;;;;;12.49;62.80;99730.53;4963919;28;20447;-75
2023/03/25 10:17:55;;;;;;;1.10;0.80;;;;;;;12.67;61.62;99734.94;4966847;28;20510;-75
2023/03/25 10:20:39;;;;;;;3.70;1.50;;;;;;;12.61;62.43;99736.75;4988484;28;20458;-74
2023/03/25 10:23:21;;;;;;;3.63;1.47;;;;;;;12.59;61.44;99735.31;4963405;28;20887;-75
2023/03/25 10:25:56;;;;;;;1.40;0.90;;;;;;;12.71;62.24;99724.41;4961447;28;20430;-77
2023/03/25 10:28:32;;;;;;;3.57;1.47;;;;;;;13.30;60.35;99729.28;4961022;28;20479;-76
2023/03/25 10:31:05;;;;;;;1.80;1.57;;;;;;;13.37;58.80;99723.66;4967168;28;20458;-75
2023/03/25 10:33:37;;;;;;;3.00;0.90;;;;;;;13.32;58.79;99718.97;4961974;28;20459;-76
2023/03/25 10:36:15;;;;;;;5.50;1.20;;;;;;;13.36;56.88;99722.81;4966071;28;20830;-74
2023/03/25 10:38:51;;;;;;;2.27;0.90;;;;;;;13.64;57.60;99710.19;4973849;28;20464;-76
2023/03/25 10:41:25;;;;;;;4.13;1.60;;;;;;;13.96;56.34;99721.22;4958405;28;20453;-75
2023/03/25 10:43:55;;;;;;;1.10;0.80;;;;;;;14.24;56.01;99719.13;4948290;28;20465;-75
2023/03/25 10:46:30;;;;;;;2.03;1.47;;;;;;;13.85;54.57;99717.53;4963050;28;20473;-75
2023/03/25 10:49:01;;;;;;;3.00;1.00;;;;;;;14.44;55.05;99706.84;4971055;28;21000;-76
2023/03/25 10:51:32;;;;;;;8.50;1.73;;;;;;;14.52;53.51;99709.97;4967417;28;20442;-76
2023/03/25 10:54:04;;;;;;;2.50;1.00;;;;;;;15.16;52.85;99702.63;4960910;28;20724;-75
2023/03/25 10:56:38;;;;;;;1.60;1.03;;;;;;;15.45;52.30;99719.44;4965575;28;20537;-77
2023/03/25 10:59:17;;;;;;;2.80;1.10;;;;;;;15.05;52.76;99713.72;4973322;28;20497;-77
2023/03/25 11:01:47;;;;;;;2.97;1.40;;;;;;;14.84;52.67;99706.44;4992579;28;20430;-78
2023/03/25 11:04:20;;;;;;;1.70;1.00;;;;;;;14.82;52.18;99711.31;4969307;28;20471;-77
2023/03/25 11:06:56;;;;;;;2.43;1.07;;;;;;;14.83;51.85;99711.06;4988613;28;20437;-77
2023/03/25 11:09:31;;;;;;;2.13;1.23;;;;;;;14.69;52.67;99707.13;4965630;28;20442;-77
2023/03/25 11:12:01;;;;;;;2.13;1.50;;;;;;;14.11;53.74;99708.63;4978570;28;20474;-78
2023/03/25 11:14:39;;;;;;;1.97;1.33;;;;;;;14.02;54.30;99704.72;4972374;28;20411;-76
2023/03/25 11:17:16;;;;;;;3.80;1.23;;;;;;;14.03;54.03;99719.13;4990572;28;20445;-77
2023/03/25 11:19:53;;;;;;;3.80;1.00;;;;;;;13.47;54.94;99702.88;4965955;28;20462;-77
2023/03/25 11:22:26;;;;;;;3.33;1.30;;;;;;;13.54;55.60;99696.47;4974053;28;20426;-76
2023/03/25 11:25:03;;;;;;;3.10;1.37;;;;;;;13.34;55.80;99703.25;4994105;28;20486;-78
2023/03/25 11:27:44;;;;;;;3.80;1.40;;;;;;;12.97;57.63;99712.94;4988892;28;20475;-76
2023/03/25 11:30:19;;;;;;;2.67;1.03;;;;;;;10.88;72.97;99755.66;4950476;28;20447;-72
2023/03/25 11:32:59;;;;;;;1.67;1.00;;;;;;;9.38;77.97;99736.72;4959411;28;20446;-72
2023/03/25 11:35:33;;;;;;;3.20;1.10;;;;;;;8.84;87.49;99743.59;4949382;28;20511;-72
2023/03/25 11:38:14;;;;;;;3.88;1.60;;;;;;;8.67;91.09;99712.78;4948332;28;20316;-75
2023/03/25 11:40:55;;;;;;;1.80;1.27;;;;;;;8.93;91.88;99709.91;4953629;28;20196;-72
2023/03/25 11:43:27;;;;;;;1.65;1.25;;;;;;;9.36;92.04;99701.00;4947413;28;20206;-75
2023/03/25 11:45:57;;;;;;;1.58;1.27;;;;;;;9.67;90.72;99708.16;4955537;28;20752;-76
2023/03/25 11:48:34;;;;;;;1.80;1.40;;;;;;;9.96;92.25;99707.41;4956019;28;20292;-76
2023/03/25 11:51:13;;;;;;;1.52;1.00;;;;;;;9.98;87.70;99702.56;4967316;28;20279;-76
2023/03/25 11:53:47;;;;;;;1.55;1.25;;;;;;;10.24;89.57;99690.63;4959145;28;20208;-75
2023/03/25 11:56:23;;;;;;;1.55;1.20;;;;;;;10.63;86.34;99683.81;4978451;28;20194;-75
2023/03/25 11:58:57;;;;;;;1.33;1.10;;;;;;;10.90;87.59;99680.44;4955208;28;20228;-76
2023/03/25 12:01:30;;;;;;;1.63;1.10;;;;;;;11.29;87.88;99675.41;4972660;28;20999;-74
2023/03/25 12:04:15;;;;;;;1.90;1.33;;;;;;;11.32;83.21;99675.78;4969228;28;20432;-79
2023/03/25 12:06:57;;;;;;;3.83;1.60;;;;;;;11.93;85.76;99668.13;4978065;28;20482;-74
2023/03/25 12:09:28;;;;;;;2.43;2.00;;;;;;;12.10;80.66;99666.31;4951265;28;20477;-76
2023/03/25 12:12:22;;;;;;;2.30;1.40;;;;;;;12.40;82.53;99663.34;4954813;28;20536;-75
2023/03/25 12:15:04;;;;;;;2.73;1.33;;;;;;;12.53;79.72;99652.19;4950872;28;20445;-78
2023/03/25 12:17:50;;;;;;;2.73;2.10;;;;;;;12.46;78.59;99649.63;4969858;28;20447;-76
2023/03/25 12:20:29;;;;;;;1.83;1.27;;;;;;;12.33;77.70;99647.22;4951330;28;20443;-76
2023/03/25 12:23:04;;;;;;;2.80;1.63;;;;;;;11.99;71.89;99645.50;4951263;28;20479;-75
2023/03/25 12:25:47;;;;;;;2.80;1.17;;;;;;;11.86;70.13;99648.50;4965875;28;20422;-75
2023/03/25 12:28:43;;;;;;;2.10;1.00;;;;;;;11.83;68.93;99652.50;4954266;28;20482;-75
2023/03/25 12:31:24;;;;;;;1.53;1.10;;;;;;;11.90;67.76;99642.34;4965965;28;20486;-75
2023/03/25 12:34:06;;;;;;;2.97;1.20;;;;;;;12.17;65.45;99637.97;4957487;28;20475;-75
2023/03/25 12:36:47;;;;;;;2.37;1.07;;;;;;;12.55;65.57;99640.03;4953532;28;20556;-76
2023/03/25 12:39:42;;;;;;;1.33;0.83;;;;;;;12.69;63.54;99639.69;4952360;28;20479;-76
2023/03/25 12:42:28;;;;;;;3.30;1.60;;;;;;;12.86;61.89;99640.53;4959532;28;20409;-74
2023/03/25 12:45:16;;;;;;;1.33;0.80;;;;;;;12.78;61.58;99635.53;4950761;28;20502;-76
2023/03/25 12:47:54;;;;;;;1.60;0.97;;;;;;;12.84;59.37;99634.50;4956758;28;20474;-76
2023/03/25 12:50:47;;;;;;;2.30;0.80;;;;;;;12.82;60.55;99639.38;4968529;28;20471;-76
2023/03/25 12:53:46;;;;;;;3.10;1.47;;;;;;;13.15;60.45;99638.56;4960841;28;20449;-73
2023/03/25 12:56:28;;;;;;;2.00;0.70;;;;;;;13.25;60.96;99634.09;4951068;28;20507;-74
2023/03/25 12:59:27;;;;;;;1.67;0.93;;;;;;;13.36;59.45;99635.88;4973471;28;20459;-76
2023/03/25 13:02:14;;;;;;;1.23;0.70;;;;;;;13.03;58.94;99625.03;4959250;28;20453;-75